Orange8 — JL6278 — position and weather

sailwx.info

Track history (hours):
 
Tides and Currents Weather Stations Pressure Air Temp Water Temp Dewpoint Dewpoint Depression Visibility Wind Speed Wind Dir Waves Ship Positions

Orange8

Last reported at 2014-Oct-01 11:20 UTC. Time now 2014-Oct-01 12:21 UTC.
Position N 34°37' E 135°26'.

Length 164 m; draft 5 m.

Type: Passenger vessel. MMSI: 431501603.

Date/timePositionNaut miles runAvg speedWind from/ knotsBaromVisibWave heightAir tempDewpointWater temp
2014-Oct-01 11:20N 34°37' E 135°26'0 0.0
2014-Oct-01 10:20N 34°37' E 135°26'0 0.0
2014-Oct-01 09:32N 34°37' E 135°26'0 0.0
2014-Oct-01 08:32N 34°37' E 135°26'0 0.0
2014-Oct-01 07:32N 34°37' E 135°26'0 0.0
2014-Oct-01 06:26N 34°37' E 135°26'0 0.0
2014-Oct-01 05:32N 34°37' E 135°26'0 0.0
2014-Oct-01 04:32N 34°37' E 135°26'0 0.0
2014-Oct-01 03:32N 34°37' E 135°26'0 0.0
2014-Oct-01 02:32N 34°37' E 135°26'0 0.0
2014-Oct-01 01:26N 34°37' E 135°26'0 0.0
2014-Oct-01 00:32N 34°37' E 135°26'0 0.0
2014-Sep-30 23:32N 34°37' E 135°26'0 0.0
2014-Sep-30 22:32N 34°37' E 135°26'0 0.0
2014-Sep-30 21:12N 34°37' E 135°26'6 9.8
2014-Sep-30 20:33N 34°35' E 135°18'1918.9
2014-Sep-30 19:33N 34°36' E 134°56'1 0.0
2014-Sep-29 14:33N 34°37' E 134°57'1818.0
2014-Sep-29 13:33N 34°36' E 135°18'6 5.9
2014-Sep-29 12:29N 34°37' E 135°26'0 0.0
2014-Sep-29 11:29N 34°37' E 135°26'0 0.0
2014-Sep-29 10:29N 34°37' E 135°26'0 0.0
2014-Sep-29 09:17N 34°37' E 135°26'0 0.0
2014-Sep-29 08:29N 34°37' E 135°26'0 0.0
2014-Sep-29 07:29N 34°37' E 135°26'0 0.0
2014-Sep-29 06:29N 34°37' E 135°26'0 0.0
2014-Sep-29 05:29N 34°37' E 135°26'0 0.0
2014-Sep-29 04:26N 34°37' E 135°26'0 0.0
2014-Sep-29 02:26N 34°37' E 135°26'0 0.0
2014-Sep-29 00:23N 34°37' E 135°26'0 0.0
2014-Sep-28 23:23N 34°37' E 135°26'0 0.0
2014-Sep-28 22:29N 34°37' E 135°26'0 0.0
2014-Sep-28 21:17N 34°37' E 135°26'5 6.5
2014-Sep-28 20:33N 34°36' E 135°20'1817.9
2014-Sep-28 19:33N 34°37' E 134°58'2 0.1
2014-Sep-27 14:32N 34°36' E 134°56'1918.9
2014-Sep-27 13:33N 34°37' E 135°18'6 6.1
2014-Sep-27 12:32N 34°37' E 135°26'0 0.0
2014-Sep-27 11:26N 34°37' E 135°26'0 0.0
2014-Sep-27 10:32N 34°37' E 135°26'0 0.0
2014-Sep-27 09:32N 34°37' E 135°26'0 0.0
2014-Sep-27 08:32N 34°37' E 135°26'0 0.0
2014-Sep-27 07:32N 34°37' E 135°26'0 0.0
2014-Sep-27 06:32N 34°37' E 135°26'0 0.0
2014-Sep-27 05:32N 34°37' E 135°26'0 0.0
2014-Sep-27 04:32N 34°37' E 135°26'0 0.0
2014-Sep-27 03:32N 34°37' E 135°26'0 0.0
2014-Sep-27 02:32N 34°37' E 135°26'0 0.0
2014-Sep-27 01:32N 34°37' E 135°26'0 0.0
2014-Sep-27 00:32N 34°37' E 135°26'0 0.0
2014-Sep-26 23:26N 34°37' E 135°26'0 0.0
2014-Sep-26 22:32N 34°37' E 135°26'0 0.0
2014-Sep-26 21:32N 34°37' E 135°26'5 5.6
2014-Sep-26 20:33N 34°36' E 135°19'1817.7
2014-Sep-26 19:33N 34°37' E 134°58'1 0.0
2014-Sep-25 14:33N 34°37' E 134°57'1818.2
2014-Sep-25 13:33N 34°36' E 135°19'6 1.9
2014-Sep-25 10:26N 34°37' E 135°26'0 0.0
2014-Sep-25 09:32N 34°37' E 135°26'0 0.0
2014-Sep-25 08:26N 34°37' E 135°26'0 0.0
2014-Sep-25 07:32N 34°37' E 135°26'0 0.0
2014-Sep-25 06:14N 34°37' E 135°26'0 0.0
2014-Sep-25 05:32N 34°37' E 135°26'0 0.0
2014-Sep-25 04:32N 34°37' E 135°26'0 0.0
2014-Sep-25 03:26N 34°37' E 135°26'0 0.0
2014-Sep-25 02:32N 34°37' E 135°26'0 0.0
2014-Sep-25 01:26N 34°37' E 135°26'0 0.0
2014-Sep-25 00:32N 34°37' E 135°26'0 0.0
2014-Sep-24 23:32N 34°37' E 135°26'0 0.0
2014-Sep-24 22:32N 34°37' E 135°26'0 0.0
2014-Sep-24 21:32N 34°37' E 135°26'6 5.6
2014-Sep-24 20:33N 34°36' E 135°19'1717.5
2014-Sep-24 19:33N 34°37' E 134°58'1 0.0
2014-Sep-23 14:34N 34°37' E 134°57'1817.5
2014-Sep-23 13:34N 34°36' E 135°19'6 5.8
2014-Sep-23 12:32N 34°37' E 135°26'0 0.0
2014-Sep-23 11:14N 34°37' E 135°26'0 0.0
2014-Sep-23 10:32N 34°37' E 135°26'0 0.0
2014-Sep-23 09:32N 34°37' E 135°26'0 0.0
2014-Sep-23 08:26N 34°37' E 135°26'0 0.0
2014-Sep-23 07:32N 34°37' E 135°26'0 0.0
2014-Sep-23 06:32N 34°37' E 135°26'0 0.0
2014-Sep-23 05:26N 34°37' E 135°26'0 0.0
2014-Sep-23 04:32N 34°37' E 135°26'0 0.0
2014-Sep-23 03:32N 34°37' E 135°26'0 0.0
2014-Sep-23 02:32N 34°37' E 135°26'0 0.0
2014-Sep-23 01:32N 34°37' E 135°26'0 0.0
2014-Sep-23 00:32N 34°37' E 135°26'0 0.0
2014-Sep-22 23:32N 34°37' E 135°26'0 0.0
2014-Sep-22 22:32N 34°37' E 135°26'0 0.0
2014-Sep-22 21:32N 34°37' E 135°26'8 7.7
2014-Sep-22 20:33N 34°35' E 135°17'1817.8
2014-Sep-22 19:33N 34°35' E 134°55'4 0.1
2014-Sep-21 14:31N 34°38' E 134°59'1717.6
2014-Sep-21 13:33N 34°37' E 135°20'5 5.2
2014-Sep-21 12:33N 34°37' E 135°26'  
Track history (hours):
 
Tides and Currents Weather Stations Pressure Air Temp Water Temp Dewpoint Dewpoint Depression Visibility Wind Speed Wind Dir Waves Ship Positions

Orange8

Last reported at 2014-Oct-01 11:20 UTC. Time now 2014-Oct-01 12:21 UTC.
Position N 34°37' E 135°26'.

Length 164 m; draft 5 m.

Type: Passenger vessel. MMSI: 431501603.

Date/timePositionNaut miles runAvg speedWind from/ knotsBaromVisibWave heightAir tempDewpointWater temp
2014-Oct-01 11:20N 34°37' E 135°26'0 0.0
2014-Oct-01 10:20N 34°37' E 135°26'0 0.0
2014-Oct-01 09:32N 34°37' E 135°26'0 0.0
2014-Oct-01 08:32N 34°37' E 135°26'0 0.0
2014-Oct-01 07:32N 34°37' E 135°26'0 0.0
2014-Oct-01 06:26N 34°37' E 135°26'0 0.0
2014-Oct-01 05:32N 34°37' E 135°26'0 0.0
2014-Oct-01 04:32N 34°37' E 135°26'0 0.0
2014-Oct-01 03:32N 34°37' E 135°26'0 0.0
2014-Oct-01 02:32N 34°37' E 135°26'0 0.0
2014-Oct-01 01:26N 34°37' E 135°26'0 0.0
2014-Oct-01 00:32N 34°37' E 135°26'0 0.0
2014-Sep-30 23:32N 34°37' E 135°26'0 0.0
2014-Sep-30 22:32N 34°37' E 135°26'0 0.0
2014-Sep-30 21:12N 34°37' E 135°26'6 9.8
2014-Sep-30 20:33N 34°35' E 135°18'1918.9
2014-Sep-30 19:33N 34°36' E 134°56'1 0.0
2014-Sep-29 14:33N 34°37' E 134°57'1818.0
2014-Sep-29 13:33N 34°36' E 135°18'6 5.9
2014-Sep-29 12:29N 34°37' E 135°26'0 0.0
2014-Sep-29 11:29N 34°37' E 135°26'0 0.0
2014-Sep-29 10:29N 34°37' E 135°26'0 0.0
2014-Sep-29 09:17N 34°37' E 135°26'0 0.0
2014-Sep-29 08:29N 34°37' E 135°26'0 0.0
2014-Sep-29 07:29N 34°37' E 135°26'0 0.0
2014-Sep-29 06:29N 34°37' E 135°26'0 0.0
2014-Sep-29 05:29N 34°37' E 135°26'0 0.0
2014-Sep-29 04:26N 34°37' E 135°26'0 0.0
2014-Sep-29 02:26N 34°37' E 135°26'0 0.0
2014-Sep-29 00:23N 34°37' E 135°26'0 0.0
2014-Sep-28 23:23N 34°37' E 135°26'0 0.0
2014-Sep-28 22:29N 34°37' E 135°26'0 0.0
2014-Sep-28 21:17N 34°37' E 135°26'5 6.5
2014-Sep-28 20:33N 34°36' E 135°20'1817.9
2014-Sep-28 19:33N 34°37' E 134°58'2 0.1
2014-Sep-27 14:32N 34°36' E 134°56'1918.9
2014-Sep-27 13:33N 34°37' E 135°18'6 6.1
2014-Sep-27 12:32N 34°37' E 135°26'0 0.0
2014-Sep-27 11:26N 34°37' E 135°26'0 0.0
2014-Sep-27 10:32N 34°37' E 135°26'0 0.0
2014-Sep-27 09:32N 34°37' E 135°26'0 0.0
2014-Sep-27 08:32N 34°37' E 135°26'0 0.0
2014-Sep-27 07:32N 34°37' E 135°26'0 0.0
2014-Sep-27 06:32N 34°37' E 135°26'0 0.0
2014-Sep-27 05:32N 34°37' E 135°26'0 0.0
2014-Sep-27 04:32N 34°37' E 135°26'0 0.0
2014-Sep-27 03:32N 34°37' E 135°26'0 0.0
2014-Sep-27 02:32N 34°37' E 135°26'0 0.0
2014-Sep-27 01:32N 34°37' E 135°26'0 0.0
2014-Sep-27 00:32N 34°37' E 135°26'0 0.0
2014-Sep-26 23:26N 34°37' E 135°26'0 0.0
2014-Sep-26 22:32N 34°37' E 135°26'0 0.0
2014-Sep-26 21:32N 34°37' E 135°26'5 5.6
2014-Sep-26 20:33N 34°36' E 135°19'1817.7
2014-Sep-26 19:33N 34°37' E 134°58'1 0.0
2014-Sep-25 14:33N 34°37' E 134°57'1818.2
2014-Sep-25 13:33N 34°36' E 135°19'6 1.9
2014-Sep-25 10:26N 34°37' E 135°26'0 0.0
2014-Sep-25 09:32N 34°37' E 135°26'0 0.0
2014-Sep-25 08:26N 34°37' E 135°26'0 0.0
2014-Sep-25 07:32N 34°37' E 135°26'0 0.0
2014-Sep-25 06:14N 34°37' E 135°26'0 0.0
2014-Sep-25 05:32N 34°37' E 135°26'0 0.0
2014-Sep-25 04:32N 34°37' E 135°26'0 0.0
2014-Sep-25 03:26N 34°37' E 135°26'0 0.0
2014-Sep-25 02:32N 34°37' E 135°26'0 0.0
2014-Sep-25 01:26N 34°37' E 135°26'0 0.0
2014-Sep-25 00:32N 34°37' E 135°26'0 0.0
2014-Sep-24 23:32N 34°37' E 135°26'0 0.0
2014-Sep-24 22:32N 34°37' E 135°26'0 0.0
2014-Sep-24 21:32N 34°37' E 135°26'6 5.6
2014-Sep-24 20:33N 34°36' E 135°19'1717.5
2014-Sep-24 19:33N 34°37' E 134°58'1 0.0
2014-Sep-23 14:34N 34°37' E 134°57'1817.5
2014-Sep-23 13:34N 34°36' E 135°19'6 5.8
2014-Sep-23 12:32N 34°37' E 135°26'0 0.0
2014-Sep-23 11:14N 34°37' E 135°26'0 0.0
2014-Sep-23 10:32N 34°37' E 135°26'0 0.0
2014-Sep-23 09:32N 34°37' E 135°26'0 0.0
2014-Sep-23 08:26N 34°37' E 135°26'0 0.0
2014-Sep-23 07:32N 34°37' E 135°26'0 0.0
2014-Sep-23 06:32N 34°37' E 135°26'0 0.0
2014-Sep-23 05:26N 34°37' E 135°26'0 0.0
2014-Sep-23 04:32N 34°37' E 135°26'0 0.0
2014-Sep-23 03:32N 34°37' E 135°26'0 0.0
2014-Sep-23 02:32N 34°37' E 135°26'0 0.0
2014-Sep-23 01:32N 34°37' E 135°26'0 0.0
2014-Sep-23 00:32N 34°37' E 135°26'0 0.0
2014-Sep-22 23:32N 34°37' E 135°26'0 0.0
2014-Sep-22 22:32N 34°37' E 135°26'0 0.0
2014-Sep-22 21:32N 34°37' E 135°26'8 7.7
2014-Sep-22 20:33N 34°35' E 135°17'1817.8
2014-Sep-22 19:33N 34°35' E 134°55'4 0.1
2014-Sep-21 14:31N 34°38' E 134°59'1717.6
2014-Sep-21 13:33N 34°37' E 135°20'5 5.2
2014-Sep-21 12:33N 34°37' E 135°26'  

Dump ship's entire track history